Time;durP1;ratioP1;P1;durP2;ratioP2;P2;SDS_P1;SDS_P2;PMS_P1;PMS_P2;Temp;Humidity;BMP_temperature;BMP_pressure;BME280_temperature;BME280_humidity;BME280_pressure;Samples;Min_cycle;Max_cycle;Signal;HPM_P1;HPM_P2
2023/08/04 00:00:33;;;;;;;2.47;1.53;;;;;;;18.68;54.69;95706.91;5086653;28;20170;-66
2023/08/04 00:02:58;;;;;;;5.77;2.20;;;;;;;18.72;54.63;95713.63;5084175;28;20170;-64
2023/08/04 00:05:24;;;;;;;15.50;2.70;;;;;;;18.70;54.54;95712.94;5077444;28;20931;-68
2023/08/04 00:07:49;;;;;;;7.60;1.77;;;;;;;18.73;54.72;95719.78;5072763;28;20197;-67
2023/08/04 00:10:15;;;;;;;6.97;2.37;;;;;;;18.64;55.15;95716.16;5086523;28;20184;-66
2023/08/04 00:12:40;;;;;;;5.57;2.17;;;;;;;18.69;54.67;95719.22;5075783;28;20206;-67
2023/08/04 00:15:07;;;;;;;4.07;1.90;;;;;;;18.62;54.81;95726.06;5066675;28;20166;-67
2023/08/04 00:17:35;;;;;;;3.20;1.50;;;;;;;18.51;55.03;95726.13;5066949;28;20303;-69
2023/08/04 00:20:01;;;;;;;2.10;1.30;;;;;;;18.48;54.72;95734.38;5067300;28;20446;-69
2023/08/04 00:22:26;;;;;;;2.97;1.60;;;;;;;18.40;55.49;95722.59;5086924;28;20411;-68
2023/08/04 00:24:52;;;;;;;3.70;2.27;;;;;;;18.34;55.68;95719.63;5087051;28;20180;-67
2023/08/04 00:27:18;;;;;;;7.57;1.80;;;;;;;18.24;56.28;95703.66;5086472;28;20214;-68
2023/08/04 00:29:43;;;;;;;3.73;1.90;;;;;;;18.34;55.65;95715.16;5086478;28;20414;-68
2023/08/04 00:32:08;;;;;;;2.57;1.73;;;;;;;18.38;55.63;95713.09;5086937;28;20165;-67
2023/08/04 00:34:34;;;;;;;2.83;1.30;;;;;;;18.39;55.67;95712.94;5086575;28;20176;-66
2023/08/04 00:36:59;;;;;;;2.40;1.60;;;;;;;18.33;55.81;95728.56;5086128;28;20558;-67
2023/08/04 00:39:25;;;;;;;4.47;1.60;;;;;;;18.36;55.79;95730.97;5066047;28;20177;-68
2023/08/04 00:41:50;;;;;;;4.27;1.40;;;;;;;18.46;55.35;95720.38;5066401;28;20181;-66
2023/08/04 00:44:15;;;;;;;2.20;1.60;;;;;;;18.25;56.26;95707.97;5066412;28;20174;-66
2023/08/04 00:46:41;;;;;;;7.20;1.83;;;;;;;18.28;56.05;95720.97;5066384;28;20197;-68
2023/08/04 00:49:07;;;;;;;6.97;2.40;;;;;;;18.30;56.03;95726.16;5065905;28;20174;-67
2023/08/04 00:51:33;;;;;;;6.70;2.03;;;;;;;18.24;56.34;95724.06;5066791;28;20178;-68
2023/08/04 00:53:59;;;;;;;3.87;1.53;;;;;;;18.19;55.98;95732.41;5066863;28;20219;-65
2023/08/04 00:56:27;;;;;;;2.33;1.40;;;;;;;18.08;56.07;95730.66;5066795;28;20428;-66
2023/08/04 00:58:52;;;;;;;2.13;1.13;;;;;;;18.15;56.07;95726.50;5066591;28;20462;-69
2023/08/04 01:01:18;;;;;;;2.30;1.40;;;;;;;18.11;55.91;95737.50;5066678;28;20416;-68
2023/08/04 01:03:43;;;;;;;1.40;1.10;;;;;;;18.15;55.76;95739.78;5066778;28;20178;-66
2023/08/04 01:06:38;;;;;;;3.47;1.20;;;;;;;18.07;55.62;95742.25;5066444;28;20255;-66
2023/08/04 01:09:16;;;;;;;4.00;1.43;;;;;;;18.07;55.89;95739.59;5065962;28;20189;-67
2023/08/04 01:11:59;;;;;;;4.13;2.70;;;;;;;18.09;55.91;95731.50;5071291;28;20915;-67
2023/08/04 01:14:25;;;;;;;6.10;2.47;;;;;;;17.90;56.59;95724.22;5089612;28;20408;-67
2023/08/04 01:16:51;;;;;;;9.20;2.70;;;;;;;17.88;56.96;95724.38;5090264;28;20917;-66
2023/08/04 01:19:16;;;;;;;4.30;1.80;;;;;;;17.90;56.51;95724.22;5089944;28;20423;-68
2023/08/04 01:21:42;;;;;;;7.30;3.00;;;;;;;17.86;56.83;95723.66;5090437;28;20173;-66
2023/08/04 01:24:09;;;;;;;3.30;2.33;;;;;;;17.98;56.25;95727.94;5090143;28;20914;-66
2023/08/04 01:26:41;;;;;;;1.67;1.50;;;;;;;17.92;56.73;95720.47;5089998;28;20561;-67
2023/08/04 01:29:09;;;;;;;3.30;1.30;;;;;;;17.97;56.51;95712.97;5089799;28;20419;-68
2023/08/04 01:31:35;;;;;;;3.33;1.50;;;;;;;17.98;56.44;95704.03;5088980;28;20916;-68
2023/08/04 01:34:00;;;;;;;3.03;1.30;;;;;;;17.89;56.67;95696.03;5090291;28;20517;-66
2023/08/04 01:36:25;;;;;;;5.67;1.93;;;;;;;17.89;56.46;95694.19;5089826;28;20193;-66
2023/08/04 01:38:51;;;;;;;4.20;1.40;;;;;;;17.91;56.71;95686.94;5089666;28;20257;-66
2023/08/04 01:41:16;;;;;;;3.17;1.20;;;;;;;17.91;56.55;95681.66;5089977;28;20168;-65
2023/08/04 01:43:41;;;;;;;2.43;1.67;;;;;;;17.74;56.96;95684.81;5090140;28;20177;-65
2023/08/04 01:46:07;;;;;;;1.70;1.13;;;;;;;17.75;57.17;95683.88;5089826;28;20212;-67
2023/08/04 01:48:33;;;;;;;3.63;1.90;;;;;;;17.69;57.39;95689.69;5089394;28;20209;-68
2023/08/04 01:50:58;;;;;;;2.73;1.87;;;;;;;17.67;57.77;95686.31;5090008;28;20198;-65
2023/08/04 01:53:23;;;;;;;3.83;1.67;;;;;;;17.55;58.08;95686.38;5089904;28;20702;-64
2023/08/04 01:55:49;;;;;;;2.30;1.37;;;;;;;17.25;59.23;95673.00;5089520;28;20553;-67
2023/08/04 01:58:14;;;;;;;5.77;1.60;;;;;;;17.26;58.43;95667.56;5089922;28;20173;-66
2023/08/04 02:00:39;;;;;;;2.90;1.70;;;;;;;16.88;60.82;95674.19;5089755;28;20180;-66
2023/08/04 02:03:05;;;;;;;4.03;1.30;;;;;;;16.69;61.21;95682.72;5089659;28;20177;-64
2023/08/04 02:05:30;;;;;;;4.57;2.00;;;;;;;16.60;61.67;95686.09;5089726;28;20838;-64
2023/08/04 02:07:55;;;;;;;1.53;1.17;;;;;;;16.49;61.85;95694.09;5090411;28;20205;-67
2023/08/04 02:10:21;;;;;;;3.40;1.53;;;;;;;16.56;61.70;95697.94;5090074;28;20176;-66
2023/08/04 02:12:46;;;;;;;2.97;1.30;;;;;;;16.84;60.50;95701.91;5075593;28;20189;-65
2023/08/04 02:15:11;;;;;;;2.80;1.50;;;;;;;17.08;59.59;95699.09;5069276;28;20169;-66
2023/08/04 02:17:37;;;;;;;2.07;1.47;;;;;;;17.17;59.72;95699.28;5069054;28;20197;-65
2023/08/04 02:20:03;;;;;;;3.10;1.40;;;;;;;17.18;59.50;95703.66;5068956;28;20261;-68
2023/08/04 02:22:28;;;;;;;5.90;2.53;;;;;;;17.28;59.58;95707.22;5068994;28;20269;-66
2023/08/04 02:24:53;;;;;;;2.37;1.50;;;;;;;17.32;59.54;95704.19;5068828;28;20181;-67
2023/08/04 02:27:19;;;;;;;6.33;1.87;;;;;;;17.32;59.44;95700.72;5068615;28;20206;-65
2023/08/04 02:29:44;;;;;;;4.37;1.43;;;;;;;17.43;58.27;95697.16;5068654;28;20173;-66
2023/08/04 02:32:10;;;;;;;2.67;1.60;;;;;;;17.32;58.64;95700.72;5068920;28;20174;-68
2023/08/04 02:34:36;;;;;;;5.90;1.80;;;;;;;17.29;58.90;95700.94;5068991;28;20201;-65
2023/08/04 02:37:01;;;;;;;3.83;1.80;;;;;;;17.36;58.41;95696.81;5068772;28;21352;-66
2023/08/04 02:39:27;;;;;;;2.30;1.50;;;;;;;17.37;58.43;95697.69;5069191;28;20174;-65
2023/08/04 02:41:53;;;;;;;5.53;2.00;;;;;;;17.46;58.12;95703.06;5069075;28;20904;-68
2023/08/04 02:44:18;;;;;;;2.83;1.40;;;;;;;17.48;58.40;95695.81;5068607;28;20178;-67
2023/08/04 02:46:45;;;;;;;4.33;2.33;;;;;;;17.48;58.30;95706.44;5068551;28;20200;-67
2023/08/04 02:49:10;;;;;;;2.60;1.80;;;;;;;17.39;58.76;95701.88;5068276;28;20188;-68
2023/08/04 02:51:35;;;;;;;6.20;2.13;;;;;;;17.37;58.80;95714.44;5068266;28;20790;-67
2023/08/04 02:54:01;;;;;;;3.57;2.43;;;;;;;17.35;58.54;95711.88;5068310;28;20178;-67
2023/08/04 02:56:27;;;;;;;5.97;2.43;;;;;;;17.16;58.66;95724.13;5068125;28;20206;-67
2023/08/04 02:58:52;;;;;;;2.93;1.53;;;;;;;16.87;59.93;95730.81;5068193;28;20413;-68
2023/08/04 03:01:18;;;;;;;3.47;1.60;;;;;;;16.49;61.44;95733.81;5068444;28;20202;-67
2023/08/04 03:03:43;;;;;;;3.40;1.47;;;;;;;16.55;61.60;95730.66;5068221;28;20174;-67
2023/08/04 03:06:09;;;;;;;2.67;1.77;;;;;;;16.27;63.04;95732.81;5068192;28;20268;-66
2023/08/04 03:08:34;;;;;;;3.80;1.60;;;;;;;16.31;63.14;95741.38;5067930;28;20212;-66
2023/08/04 03:11:00;;;;;;;5.60;1.67;;;;;;;16.46;62.72;95732.25;5067869;28;20892;-66
2023/08/04 03:13:26;;;;;;;2.97;1.70;;;;;;;16.42;62.67;95730.78;5087499;28;20174;-66
2023/08/04 03:15:59;;;;;;;5.77;2.00;;;;;;;16.60;61.74;95736.44;5087914;28;20318;-66
2023/08/04 03:18:26;;;;;;;9.07;1.97;;;;;;;16.68;61.89;95722.63;5087987;28;20836;-67
2023/08/04 03:20:51;;;;;;;8.80;1.80;;;;;;;16.80;61.43;95726.97;5087435;28;20411;-67
2023/08/04 03:23:17;;;;;;;22.67;3.57;;;;;;;17.00;60.06;95725.34;5088058;28;20411;-66
2023/08/04 03:25:43;;;;;;;5.83;2.30;;;;;;;16.91;60.04;95724.31;5087933;28;20193;-68
2023/08/04 03:28:08;;;;;;;3.00;1.53;;;;;;;16.95;60.46;95709.00;5087717;28;20295;-67
2023/08/04 03:30:34;;;;;;;6.70;1.80;;;;;;;17.11;59.55;95722.69;5087634;28;20199;-66
2023/08/04 03:32:59;;;;;;;13.00;2.20;;;;;;;17.13;59.45;95727.88;5087951;28;20174;-66
2023/08/04 03:35:24;;;;;;;59.47;7.40;;;;;;;17.18;59.46;95720.41;5087371;28;20170;-64
2023/08/04 03:37:50;;;;;;;24.83;4.40;;;;;;;17.10;59.68;95721.03;5087564;28;20169;-66
2023/08/04 03:40:15;;;;;;;12.60;2.80;;;;;;;17.07;60.13;95731.84;5087337;28;20262;-69
2023/08/04 03:42:41;;;;;;;27.67;5.33;;;;;;;17.13;60.19;95733.19;5087821;28;20534;-67
2023/08/04 03:45:07;;;;;;;14.87;3.03;;;;;;;17.25;59.67;95729.53;5087579;28;20303;-65
2023/08/04 03:47:34;;;;;;;23.43;3.97;;;;;;;17.22;59.43;95735.09;5087351;28;20413;-67
2023/08/04 03:50:00;;;;;;;14.23;3.03;;;;;;;17.37;58.46;95734.81;5086917;28;20445;-68
2023/08/04 03:52:25;;;;;;;2.50;1.77;;;;;;;17.34;58.11;95743.88;5087256;28;20572;-65
2023/08/04 03:54:51;;;;;;;24.33;3.60;;;;;;;17.30;58.44;95745.91;5087349;28;20256;-66
2023/08/04 03:57:16;;;;;;;18.73;3.90;;;;;;;17.32;58.99;95743.97;5087204;28;20594;-67
2023/08/04 03:59:42;;;;;;;7.40;1.87;;;;;;;17.34;58.69;95747.34;5087067;28;20170;-67
2023/08/04 04:02:07;;;;;;;5.70;1.80;;;;;;;17.30;58.54;95750.38;5087257;28;20181;-67
2023/08/04 04:04:33;;;;;;;4.67;2.07;;;;;;;17.29;58.83;95752.19;5087219;28;20181;-68
2023/08/04 04:06:58;;;;;;;9.20;1.83;;;;;;;17.34;58.74;95751.81;5086764;28;20185;-67
2023/08/04 04:09:24;;;;;;;10.53;2.53;;;;;;;17.42;58.46;95754.69;5086794;28;20415;-64
2023/08/04 04:11:49;;;;;;;5.60;2.23;;;;;;;17.33;59.14;95755.41;5080515;28;20181;-65
2023/08/04 04:14:14;;;;;;;4.17;1.97;;;;;;;17.32;58.77;95748.44;5067024;28;20170;-67
2023/08/04 04:16:40;;;;;;;6.57;2.13;;;;;;;17.26;59.07;95741.81;5067192;28;20225;-66
2023/08/04 04:19:05;;;;;;;2.83;1.90;;;;;;;17.28;59.50;95741.69;5066702;28;20554;-66
2023/08/04 04:21:30;;;;;;;15.17;3.97;;;;;;;17.36;59.30;95747.19;5067341;28;20173;-66
2023/08/04 04:23:56;;;;;;;6.87;2.17;;;;;;;17.35;59.40;95751.69;5067056;28;20181;-66
2023/08/04 04:26:21;;;;;;;5.33;1.93;;;;;;;17.39;58.93;95754.94;5066793;28;20647;-67
2023/08/04 04:28:46;;;;;;;9.03;3.90;;;;;;;17.36;59.05;95760.47;5066456;28;20314;-66
2023/08/04 04:31:12;;;;;;;13.90;2.67;;;;;;;17.31;59.61;95752.03;5066503;28;20178;-66
2023/08/04 04:33:37;;;;;;;10.23;1.83;;;;;;;16.93;60.98;95745.38;5066482;28;20788;-67
2023/08/04 04:36:03;;;;;;;3.47;1.70;;;;;;;16.83;61.22;95747.06;5066548;28;20198;-67
2023/08/04 04:38:28;;;;;;;4.13;1.67;;;;;;;16.92;61.01;95741.88;5066549;28;20172;-67
2023/08/04 04:40:58;;;;;;;3.60;2.17;;;;;;;16.82;61.90;95748.88;5066184;28;20178;-67
2023/08/04 04:43:24;;;;;;;8.33;2.47;;;;;;;16.69;63.12;95738.38;5066719;28;20181;-68
2023/08/04 04:45:50;;;;;;;3.83;2.30;;;;;;;16.64;63.21;95739.69;5058147;28;20449;-67
2023/08/04 04:48:15;;;;;;;25.93;5.00;;;;;;;16.50;64.13;95724.88;5054339;28;20921;-68
2023/08/04 04:50:40;;;;;;;13.37;3.70;;;;;;;16.44;64.92;95728.88;5047416;28;20479;-67
2023/08/04 04:53:06;;;;;;;8.57;2.93;;;;;;;16.36;65.13;95731.25;5077230;28;20261;-68
2023/08/04 04:55:31;;;;;;;8.07;3.70;;;;;;;16.68;63.95;95723.44;5067580;28;20193;-65
2023/08/04 04:57:56;;;;;;;13.77;3.37;;;;;;;16.84;63.59;95728.41;5064494;28;20181;-66
2023/08/04 05:00:22;;;;;;;8.67;3.23;;;;;;;16.90;62.81;95727.06;5064808;28;20170;-68
2023/08/04 05:02:47;;;;;;;6.10;2.30;;;;;;;16.70;63.75;95715.34;5066180;28;20178;-67
2023/08/04 05:05:13;;;;;;;6.17;2.60;;;;;;;16.89;63.23;95725.38;5058819;28;20190;-69
2023/08/04 05:07:38;;;;;;;4.83;2.40;;;;;;;16.57;63.93;95725.25;5061731;28;20301;-68
2023/08/04 05:10:04;;;;;;;4.00;2.13;;;;;;;16.51;63.90;95724.78;5067565;28;20181;-68
2023/08/04 05:12:29;;;;;;;11.23;2.80;;;;;;;16.52;64.28;95721.16;5074942;28;20224;-68
2023/08/04 05:14:55;;;;;;;10.97;3.90;;;;;;;16.54;64.61;95720.22;5066139;28;20461;-67
2023/08/04 05:17:20;;;;;;;20.73;3.50;;;;;;;16.71;64.25;95720.53;5058107;28;20195;-68
2023/08/04 05:19:45;;;;;;;14.33;3.07;;;;;;;16.71;63.88;95731.16;5054040;28;20587;-67
2023/08/04 05:22:11;;;;;;;21.70;3.80;;;;;;;17.22;62.57;95721.84;5063132;28;20186;-66
2023/08/04 05:24:36;;;;;;;20.33;4.20;;;;;;;17.52;61.46;95728.22;5055895;28;20185;-66
2023/08/04 05:27:04;;;;;;;7.20;2.70;;;;;;;18.13;60.89;95724.94;5059615;28;20305;-66
2023/08/04 05:29:29;;;;;;;11.27;2.80;;;;;;;17.40;61.37;95734.56;5059520;28;20170;-69
2023/08/04 05:31:54;;;;;;;5.77;2.23;;;;;;;17.69;60.40;95733.00;5059446;28;21044;-70
2023/08/04 05:34:20;;;;;;;7.57;2.57;;;;;;;17.56;60.82;95740.28;5058434;28;20178;-65
2023/08/04 05:36:45;;;;;;;17.00;5.23;;;;;;;17.64;62.19;95745.78;5054506;28;20186;-66
2023/08/04 05:39:11;;;;;;;6.47;2.30;;;;;;;17.94;59.89;95738.94;5046016;28;20278;-68
2023/08/04 05:41:36;;;;;;;12.90;3.27;;;;;;;17.96;59.75;95744.97;5049797;28;20171;-68
2023/08/04 05:44:01;;;;;;;12.93;2.90;;;;;;;18.05;59.66;95744.19;5049279;28;20190;-66
2023/08/04 05:46:27;;;;;;;9.83;1.87;;;;;;;18.18;59.55;95750.13;5051079;28;20190;-68
2023/08/04 05:48:52;;;;;;;7.00;2.43;;;;;;;18.34;59.14;95744.38;5055803;28;20214;-69
2023/08/04 05:51:17;;;;;;;3.67;2.00;;;;;;;18.43;58.81;95749.88;5063443;28;20241;-69
2023/08/04 05:53:43;;;;;;;4.40;2.00;;;;;;;18.67;58.47;95746.91;5057287;28;20174;-67
2023/08/04 05:56:09;;;;;;;5.53;2.00;;;;;;;18.63;58.18;95746.34;5060763;28;20936;-65
2023/08/04 05:58:34;;;;;;;5.93;2.37;;;;;;;18.61;58.35;95740.31;5050806;28;20171;-64
2023/08/04 06:00:59;;;;;;;12.67;2.80;;;;;;;18.97;58.38;95733.63;5062086;28;20224;-67
2023/08/04 06:03:25;;;;;;;7.80;2.10;;;;;;;18.92;58.46;95740.31;5052415;28;20186;-70
2023/08/04 06:05:50;;;;;;;2.80;1.60;;;;;;;18.67;58.59;95737.13;5047623;28;20215;-67
2023/08/04 06:08:16;;;;;;;8.70;2.47;;;;;;;18.70;58.73;95739.50;5065577;28;20198;-69
2023/08/04 06:10:41;;;;;;;8.83;2.47;;;;;;;18.88;58.85;95741.59;5066620;28;20194;-68
2023/08/04 06:13:07;;;;;;;12.10;2.23;;;;;;;18.89;57.56;95735.28;5083396;28;20177;-67
2023/08/04 06:15:32;;;;;;;88.83;13.67;;;;;;;18.85;57.98;95739.19;5082765;28;20182;-66
2023/08/04 06:17:57;;;;;;;19.50;4.57;;;;;;;18.77;57.93;95739.84;5065820;28;20583;-69
2023/08/04 06:20:23;;;;;;;18.83;4.70;;;;;;;18.91;57.99;95739.47;5046283;28;20174;-69
2023/08/04 06:22:49;;;;;;;12.50;3.23;;;;;;;18.93;57.70;95740.19;5046137;28;20894;-68
2023/08/04 06:25:14;;;;;;;7.03;2.53;;;;;;;19.16;57.20;95737.34;5046265;28;20202;-68
2023/08/04 06:27:40;;;;;;;5.13;2.50;;;;;;;19.26;57.03;95738.19;5046211;28;20209;-68
2023/08/04 06:30:07;;;;;;;9.30;3.30;;;;;;;19.21;57.40;95743.09;5046367;28;20170;-66
2023/08/04 06:32:32;;;;;;;8.43;3.40;;;;;;;19.11;57.92;95740.41;5047086;28;20405;-68
2023/08/04 06:34:57;;;;;;;40.30;8.40;;;;;;;19.05;57.82;95746.25;5063950;28;20814;-70
2023/08/04 06:37:24;;;;;;;41.67;7.70;;;;;;;19.03;58.09;95741.06;5065940;28;20186;-68
2023/08/04 06:39:49;;;;;;;20.87;5.60;;;;;;;19.13;58.15;95748.22;5065668;28;20189;-67
2023/08/04 06:42:16;;;;;;;26.90;4.10;;;;;;;19.27;57.70;95744.34;5084678;28;20837;-68
2023/08/04 06:44:41;;;;;;;7.53;3.03;;;;;;;19.24;57.70;95748.94;5086671;28;20253;-67
2023/08/04 06:47:07;;;;;;;5.43;2.97;;;;;;;19.34;57.72;95761.44;5086151;28;20542;-68
2023/08/04 06:49:34;;;;;;;7.07;1.83;;;;;;;19.39;57.55;95765.38;5087816;28;20177;-65
2023/08/04 06:52:00;;;;;;;8.23;4.90;;;;;;;19.59;56.79;95760.91;5088252;28;20211;-67
2023/08/04 06:54:25;;;;;;;9.73;4.30;;;;;;;19.53;57.04;95765.94;5070008;28;20408;-67
2023/08/04 06:56:50;;;;;;;8.43;3.30;;;;;;;19.52;57.38;95772.28;5067753;28;20213;-67
2023/08/04 06:59:16;;;;;;;8.80;3.20;;;;;;;19.41;57.78;95770.56;5067463;28;20201;-69
2023/08/04 07:01:41;;;;;;;8.43;3.40;;;;;;;19.42;57.85;95772.25;5068075;28;20189;-68
2023/08/04 07:04:07;;;;;;;8.90;2.80;;;;;;;19.18;58.48;95765.47;5067824;28;20276;-66
2023/08/04 07:06:32;;;;;;;24.80;5.60;;;;;;;19.22;58.30;95776.66;5067380;28;20210;-67
2023/08/04 07:08:57;;;;;;;39.73;7.23;;;;;;;19.26;58.49;95775.44;5067508;28;20284;-71
2023/08/04 07:11:23;;;;;;;10.27;3.57;;;;;;;19.16;58.79;95786.03;5066383;28;20174;-68
2023/08/04 07:13:48;;;;;;;7.67;2.30;;;;;;;19.37;58.19;95791.28;5055399;28;20232;-66
2023/08/04 07:16:13;;;;;;;9.47;3.47;;;;;;;19.25;58.50;95785.22;5067295;28;20242;-69
2023/08/04 07:18:39;;;;;;;9.73;3.03;;;;;;;19.20;58.53;95782.13;5061409;28;20540;-64
2023/08/04 07:21:12;;;;;;;3.90;2.00;;;;;;;19.17;59.06;95777.06;5047614;28;20470;-64
2023/08/04 07:23:38;;;;;;;3.57;2.00;;;;;;;19.28;58.57;95775.31;5059015;28;20213;-67
2023/08/04 07:26:04;;;;;;;7.23;2.30;;;;;;;19.33;58.68;95779.22;5067420;28;20815;-69
2023/08/04 07:28:33;;;;;;;7.77;2.43;;;;;;;19.39;58.43;95786.69;5067274;28;20450;-65
2023/08/04 07:31:03;;;;;;;71.17;11.60;;;;;;;19.61;57.78;95785.59;5067050;28;20173;-66
2023/08/04 07:33:28;;;;;;;10.40;2.37;;;;;;;20.05;56.92;95774.56;5067420;28;20889;-67
2023/08/04 07:35:55;;;;;;;24.63;3.70;;;;;;;20.45;55.04;95773.53;5066994;28;20515;-68
2023/08/04 07:38:21;;;;;;;33.27;7.50;;;;;;;20.73;54.76;95775.31;5066563;28;20158;-69
2023/08/04 07:40:46;;;;;;;13.10;2.60;;;;;;;21.36;52.95;95771.94;5067560;28;20411;-69
2023/08/04 07:43:12;;;;;;;8.20;2.13;;;;;;;21.59;52.47;95779.59;5067852;28;20405;-64
2023/08/04 07:45:38;;;;;;;10.53;2.90;;;;;;;21.94;51.89;95768.06;5067591;28;20813;-67
2023/08/04 07:48:03;;;;;;;19.90;3.97;;;;;;;22.18;51.56;95772.78;5066692;28;20202;-66
2023/08/04 07:50:29;;;;;;;15.23;3.03;;;;;;;21.93;51.09;95766.38;5058228;28;20435;-66
2023/08/04 07:52:54;;;;;;;9.67;2.43;;;;;;;21.85;51.69;95769.00;5053228;28;20175;-68
2023/08/04 07:55:20;;;;;;;14.40;2.63;;;;;;;21.61;52.42;95782.09;5060163;28;20820;-65
2023/08/04 07:57:45;;;;;;;12.80;2.50;;;;;;;21.21;53.25;95776.09;5054847;28;20216;-66
2023/08/04 08:00:11;;;;;;;2.50;1.43;;;;;;;20.58;55.02;95773.25;5054792;28;20182;-66
2023/08/04 08:02:36;;;;;;;4.30;1.70;;;;;;;20.61;55.60;95770.31;5057086;28;20182;-66
2023/08/04 08:05:02;;;;;;;6.23;1.80;;;;;;;20.91;54.67;95759.38;5055899;28;20885;-64
2023/08/04 08:07:28;;;;;;;5.53;1.80;;;;;;;21.04;54.34;95760.88;5060873;28;20205;-71
2023/08/04 08:09:53;;;;;;;6.50;2.10;;;;;;;21.00;54.41;95760.34;5056057;28;20206;-68
2023/08/04 08:12:18;;;;;;;9.23;2.70;;;;;;;21.43;53.42;95763.38;5071336;28;20194;-66
2023/08/04 08:14:44;;;;;;;13.80;3.10;;;;;;;21.69;51.91;95748.31;5055505;28;20179;-66
2023/08/04 08:17:09;;;;;;;7.47;1.80;;;;;;;22.04;51.15;95745.75;5061621;28;20224;-67
2023/08/04 08:19:34;;;;;;;11.20;2.60;;;;;;;22.50;49.69;95741.97;5058024;28;20683;-68
2023/08/04 08:22:00;;;;;;;13.60;2.63;;;;;;;22.78;48.89;95733.78;5054748;28;20216;-66
2023/08/04 08:24:26;;;;;;;6.23;2.03;;;;;;;22.80;48.70;95732.63;5056525;28;20186;-67
2023/08/04 08:26:51;;;;;;;8.03;2.40;;;;;;;23.15;47.54;95743.34;5059340;28;20258;-65
2023/08/04 08:29:16;;;;;;;3.30;1.50;;;;;;;23.33;46.92;95757.47;5060767;28;20202;-67
2023/08/04 08:31:42;;;;;;;3.97;1.87;;;;;;;23.43;46.67;95742.13;5064984;28;21083;-67
2023/08/04 08:34:07;;;;;;;9.00;1.90;;;;;;;23.52;46.58;95736.78;5059000;28;20186;-65
2023/08/04 08:36:32;;;;;;;8.07;1.63;;;;;;;23.36;47.44;95733.06;5056273;28;20206;-69
2023/08/04 08:38:58;;;;;;;3.90;1.90;;;;;;;23.35;46.86;95733.22;5076279;28;20236;-68
2023/08/04 08:41:23;;;;;;;5.67;1.80;;;;;;;23.57;46.00;95735.28;5066019;28;20593;-66
2023/08/04 08:43:49;;;;;;;9.17;1.80;;;;;;;23.54;46.16;95740.97;5063578;28;20733;-64
2023/08/04 08:46:15;;;;;;;8.23;1.70;;;;;;;23.45;46.53;95742.78;5052298;28;20757;-66
2023/08/04 08:48:46;;;;;;;10.17;1.97;;;;;;;23.78;46.04;95740.19;5056997;28;20197;-68
2023/08/04 08:51:20;;;;;;;20.43;2.30;;;;;;;23.94;45.39;95735.88;5056604;28;20440;-65
2023/08/04 08:53:47;;;;;;;3.97;1.33;;;;;;;23.77;45.73;95730.50;5057589;28;20413;-63
2023/08/04 08:56:14;;;;;;;10.80;2.07;;;;;;;23.62;46.10;95732.09;5057025;28;20756;-70
2023/08/04 08:58:41;;;;;;;7.67;1.70;;;;;;;23.90;45.45;95734.53;5056340;28;20500;-70
2023/08/04 09:01:07;;;;;;;7.57;1.70;;;;;;;23.98;43.42;95727.34;5061616;28;20421;-68
2023/08/04 09:03:35;;;;;;;3.70;1.30;;;;;;;24.32;42.94;95725.50;5059233;28;20424;-68
2023/08/04 09:06:01;;;;;;;6.80;1.33;;;;;;;24.47;42.65;95734.53;5049163;28;20457;-68
2023/08/04 09:08:27;;;;;;;4.10;1.67;;;;;;;24.27;43.54;95729.50;5049605;28;20534;-66
2023/08/04 09:10:52;;;;;;;2.73;1.23;;;;;;;24.56;42.50;95730.84;5056276;28;20174;-69
2023/08/04 09:13:18;;;;;;;12.27;2.27;;;;;;;24.65;42.08;95726.31;5068842;28;20464;-67
2023/08/04 09:15:52;;;;;;;7.03;1.53;;;;;;;24.30;42.88;95731.84;5063708;28;20303;-66
2023/08/04 09:18:37;;;;;;;3.70;1.20;;;;;;;24.03;44.39;95729.53;5066668;28;20298;-70
2023/08/04 09:21:08;;;;;;;6.93;1.63;;;;;;;23.62;42.46;95721.38;5061558;28;20431;-68
2023/08/04 09:23:41;;;;;;;10.20;1.90;;;;;;;24.13;41.69;95732.03;5066814;28;20491;-67
2023/08/04 09:26:06;;;;;;;6.17;1.33;;;;;;;23.68;44.15;95729.59;5059013;28;20768;-67
2023/08/04 09:28:32;;;;;;;8.60;1.57;;;;;;;23.37;44.64;95726.69;5064503;28;20486;-67
2023/08/04 09:31:01;;;;;;;4.30;1.50;;;;;;;23.12;45.17;95724.94;5065007;28;20174;-69
2023/08/04 09:33:26;;;;;;;5.17;1.10;;;;;;;23.30;41.81;95723.00;5063403;28;20235;-67
2023/08/04 09:36:09;;;;;;;5.83;1.30;;;;;;;23.29;41.94;95721.31;5069908;28;21000;-67
2023/08/04 09:38:36;;;;;;;4.67;1.80;;;;;;;23.28;42.36;95725.00;5070136;28;20170;-67
2023/08/04 09:41:23;;;;;;;9.10;1.60;;;;;;;23.28;40.57;95734.88;5070037;28;20412;-65
2023/08/04 09:43:49;;;;;;;4.03;1.20;;;;;;;23.01;41.46;95723.41;5006987;28;20442;-67
2023/08/04 09:46:19;;;;;;;4.23;1.73;;;;;;;23.07;41.89;95711.19;5005264;28;20470;-68
2023/08/04 09:48:44;;;;;;;5.43;1.50;;;;;;;23.20;41.28;95706.25;5002959;28;20260;-67
2023/08/04 09:51:16;;;;;;;2.33;1.20;;;;;;;23.15;41.07;95698.69;5001067;28;20975;-68
2023/08/04 09:53:47;;;;;;;4.60;1.03;;;;;;;23.10;42.68;95711.69;5000431;28;20195;-65
2023/08/04 09:56:14;;;;;;;3.47;1.50;;;;;;;23.33;42.19;95692.38;5005809;28;20470;-68
2023/08/04 09:58:41;;;;;;;1.77;0.90;;;;;;;23.45;42.46;95696.41;5005795;28;20962;-66
2023/08/04 10:01:06;;;;;;;6.03;1.07;;;;;;;23.40;43.04;95693.41;5005321;28;20427;-67
2023/08/04 10:03:39;;;;;;;7.70;1.47;;;;;;;23.59;41.70;95697.63;5005547;28;21517;-66
2023/08/04 10:06:05;;;;;;;3.10;1.20;;;;;;;23.13;43.10;95698.00;5007100;28;20709;-68
2023/08/04 10:08:32;;;;;;;2.63;1.20;;;;;;;23.34;43.49;95692.22;5006246;28;20470;-70
2023/08/04 10:10:59;;;;;;;5.17;1.27;;;;;;;23.58;43.43;95699.47;5005934;28;20176;-66
2023/08/04 10:13:31;;;;;;;7.10;1.30;;;;;;;23.51;43.90;95705.66;5006518;28;21013;-68
2023/08/04 10:15:58;;;;;;;1.57;0.90;;;;;;;23.42;41.47;95713.66;5008399;28;20443;-68
2023/08/04 10:18:44;;;;;;;3.10;1.00;;;;;;;23.25;40.57;95711.94;5006348;28;20461;-68
2023/08/04 10:21:10;;;;;;;2.47;0.90;;;;;;;23.43;40.15;95711.81;5033314;28;21125;-65
2023/08/04 10:23:35;;;;;;;2.67;0.90;;;;;;;23.76;39.77;95699.34;5066171;28;20471;-65
2023/08/04 10:26:03;;;;;;;2.57;1.07;;;;;;;24.05;40.01;95698.03;5057877;28;20675;-66
2023/08/04 10:28:32;;;;;;;2.33;1.40;;;;;;;24.61;38.85;95690.91;5056650;28;20282;-69
2023/08/04 10:31:06;;;;;;;6.00;1.97;;;;;;;24.78;39.48;95685.50;5059688;28;20440;-67
2023/08/04 10:33:31;;;;;;;3.20;1.13;;;;;;;25.02;39.20;95681.91;5069024;28;20956;-68
2023/08/04 10:36:09;;;;;;;19.20;2.80;;;;;;;24.57;40.85;95689.59;5065195;28;20447;-68
2023/08/04 10:38:49;;;;;;;12.57;2.80;;;;;;;24.46;40.03;95693.47;5066904;28;20686;-65
2023/08/04 10:41:14;;;;;;;7.50;1.43;;;;;;;24.42;40.09;95705.50;5068761;28;20419;-66
2023/08/04 10:43:40;;;;;;;4.63;1.37;;;;;;;24.21;39.91;95710.56;5065450;28;20437;-67
2023/08/04 10:46:12;;;;;;;3.43;1.23;;;;;;;23.87;39.92;95709.72;5059039;28;20210;-69
2023/08/04 10:48:40;;;;;;;1.90;1.40;;;;;;;23.75;39.80;95716.44;5064904;28;20245;-70
2023/08/04 10:51:08;;;;;;;8.80;1.37;;;;;;;23.77;39.87;95706.38;5059304;28;20611;-67
2023/08/04 10:53:34;;;;;;;5.20;1.70;;;;;;;23.84;39.83;95709.25;5058009;28;20437;-68
2023/08/04 10:56:00;;;;;;;2.93;1.20;;;;;;;23.76;39.49;95717.25;5061516;28;21030;-67
2023/08/04 10:58:27;;;;;;;6.93;2.33;;;;;;;23.66;40.12;95726.25;5067750;28;20174;-68
2023/08/04 11:00:54;;;;;;;6.00;1.50;;;;;;;23.75;40.24;95732.50;5068001;28;20412;-68
2023/08/04 11:03:20;;;;;;;3.17;1.30;;;;;;;23.81;40.50;95739.03;5064025;28;20929;-65
2023/08/04 11:05:46;;;;;;;8.03;1.80;;;;;;;23.69;41.48;95738.47;5068947;28;20448;-68
2023/08/04 11:08:12;;;;;;;6.30;2.00;;;;;;;23.64;41.59;95746.16;5068556;28;20198;-68
2023/08/04 11:10:45;;;;;;;6.30;1.40;;;;;;;23.76;41.20;95754.75;5068102;28;20189;-66
2023/08/04 11:13:11;;;;;;;2.63;1.30;;;;;;;23.68;41.14;95748.34;5067887;28;20407;-66
2023/08/04 11:15:47;;;;;;;4.27;1.47;;;;;;;23.65;41.88;95747.88;5067792;28;20869;-67
2023/08/04 11:18:21;;;;;;;5.13;1.63;;;;;;;23.75;41.35;95748.56;5067495;28;20181;-68
2023/08/04 11:20:46;;;;;;;3.97;1.20;;;;;;;23.59;41.66;95753.88;5047731;28;20440;-68
2023/08/04 11:23:12;;;;;;;17.63;3.80;;;;;;;23.77;41.94;95740.38;5061227;28;20475;-67
2023/08/04 11:25:38;;;;;;;15.60;2.70;;;;;;;24.04;41.45;95720.47;5070556;28;20162;-67
2023/08/04 11:28:05;;;;;;;8.90;2.90;;;;;;;24.32;40.71;95725.50;5067433;28;20201;-67